Salt Lake City, Utah
Current Conditions -  °F | °C
As of 3:53 PM on Saturday 20 Dec 2014 (Local Time) from KSLC Reporting Station
Overcast Overcast  
Wind Chill: 37°   Ceiling: 8500
Heat Index: 41°   Visibility: 10mi
Dew Point: 35°   Wind: 6mph
Humidity: 79%   Direction: 150°SSE
Pressure: 30.06"   Gusts: NA
Location:  40.76°N, 111.88°W
Report Text: KSLC 202253Z 15005KT 10SM FEW025 SCT055 OVC085 05/02 A3006 RMK AO2 RAE09 SLP177 P0000 T00500017
Loading
Personal Weather Stations






























Interactive Weather Map New forecast layout! Learn more

10-Day Weather Forecast

Advertisements
Track Severe Weather on mobile